OAS191 TTPP-SKBO
Flight info
| Callsign | OAS191 |
|---|---|
| Flight time | 2h 9m |
| Altitude | 24000 |
| Route | POS A562 MUN/N0461F340 DCT SFD/N0458F360 DCT AUC/N0406F240 W20 MAVDA DCT SIRUG SIRUG5E |
| Aircraft | A320/M-SDE3FGHIRWY/LB1 |
Departure
| Time | 2026-05-04 18:11 |
|---|---|
| Airport | Piarco International Airport (TTPP) |
Arrival
| Time | 2026-05-04 20:21 |
|---|---|
| Airport | El Dorado International Airport (SKBO) |
| Time | Latitude | Longitude | Altitude | Speed | Heading |
|---|---|---|---|---|---|
| 2026-05-04 17:52 | 10.59964 | -61.33825 | 17 ft | 0 kts | 309° |
| 2026-05-04 17:59 | 10.59956 | -61.33816 | 17 ft | 4 kts | 307° |
| 2026-05-04 17:59 | 10.59941 | -61.33793 | 18 ft | 4 kts | 303° |
| 2026-05-04 17:59 | 10.59916 | -61.33752 | 19 ft | 4 kts | 265° |
| 2026-05-04 18:00 | 10.59927 | -61.33739 | 19 ft | 4 kts | 182° |
| 2026-05-04 18:00 | 10.59954 | -61.33739 | 18 ft | 4 kts | 176° |
| 2026-05-04 18:00 | 10.59975 | -61.33740 | 17 ft | 4 kts | 180° |
| 2026-05-04 18:00 | 10.60003 | -61.33740 | 20 ft | 4 kts | 180° |
| 2026-05-04 18:01 | 10.60016 | -61.33740 | 18 ft | 0 kts | 180° |
| 2026-05-04 18:03 | 10.60012 | -61.33740 | 17 ft | 2 kts | 180° |
| 2026-05-04 18:03 | 10.59989 | -61.33740 | 17 ft | 5 kts | 180° |
| 2026-05-04 18:04 | 10.59944 | -61.33740 | 17 ft | 8 kts | 180° |
| 2026-05-04 18:04 | 10.59882 | -61.33740 | 17 ft | 10 kts | 179° |
| 2026-05-04 18:04 | 10.59717 | -61.33765 | 17 ft | 15 kts | 239° |
| 2026-05-04 18:05 | 10.59707 | -61.33875 | 17 ft | 17 kts | 270° |
| 2026-05-04 18:05 | 10.59707 | -61.34004 | 17 ft | 19 kts | 271° |
| 2026-05-04 18:05 | 10.59708 | -61.34150 | 17 ft | 22 kts | 267° |
| 2026-05-04 18:05 | 10.59707 | -61.34285 | 16 ft | 19 kts | 270° |
| 2026-05-04 18:06 | 10.59655 | -61.34524 | 17 ft | 17 kts | 202° |
| 2026-05-04 18:06 | 10.59535 | -61.34528 | 16 ft | 17 kts | 180° |
| 2026-05-04 18:06 | 10.59425 | -61.34544 | 18 ft | 14 kts | 224° |
| 2026-05-04 18:07 | 10.59417 | -61.34628 | 19 ft | 12 kts | 258° |
| 2026-05-04 18:07 | 10.59395 | -61.34716 | 17 ft | 13 kts | 255° |
| 2026-05-04 18:07 | 10.59371 | -61.34809 | 17 ft | 14 kts | 255° |
| 2026-05-04 18:07 | 10.59351 | -61.34903 | 17 ft | 13 kts | 265° |
| 2026-05-04 18:08 | 10.59352 | -61.34999 | 17 ft | 14 kts | 272° |
| 2026-05-04 18:08 | 10.59352 | -61.35102 | 17 ft | 16 kts | 271° |
| 2026-05-04 18:08 | 10.59402 | -61.35185 | 17 ft | 16 kts | 356° |
| 2026-05-04 18:08 | 10.59520 | -61.35180 | 17 ft | 17 kts | 9° |
| 2026-05-04 18:09 | 10.59533 | -61.35150 | 17 ft | 0 kts | 89° |
| 2026-05-04 18:10 | 10.59534 | -61.35077 | 16 ft | 37 kts | 89° |
| 2026-05-04 18:10 | 10.59536 | -61.34583 | 17 ft | 100 kts | 90° |
| 2026-05-04 18:10 | 10.59538 | -61.33692 | 17 ft | 150 kts | 89° |
| 2026-05-04 18:11 | 10.59542 | -61.32591 | 488 ft | 155 kts | 91° |
| 2026-05-04 18:11 | 10.59543 | -61.31495 | 1182 ft | 155 kts | 90° |
| 2026-05-04 18:11 | 10.59510 | -61.30391 | 1896 ft | 159 kts | 103° |
| 2026-05-04 18:11 | 10.58843 | -61.29424 | 2471 ft | 183 kts | 142° |
| 2026-05-04 18:12 | 10.57536 | -61.29100 | 2727 ft | 216 kts | 187° |
| 2026-05-04 18:12 | 10.56688 | -61.29425 | 2976 ft | 233 kts | 207° |
| 2026-05-04 18:13 | 10.56382 | -61.29617 | 3047 ft | 238 kts | 210° |
| 2026-05-04 18:14 | 10.55030 | -61.30723 | 3455 ft | 256 kts | 220° |
| 2026-05-04 18:14 | 10.53717 | -61.32034 | 3999 ft | 275 kts | 223° |
| 2026-05-04 18:14 | 10.52371 | -61.33449 | 4760 ft | 280 kts | 224° |
| 2026-05-04 18:15 | 10.49629 | -61.36283 | 6355 ft | 286 kts | 222° |
| 2026-05-04 18:15 | 10.46836 | -61.39244 | 7797 ft | 297 kts | 233° |
| 2026-05-04 18:15 | 10.45861 | -61.41114 | 8521 ft | 303 kts | 246° |
| 2026-05-04 18:16 | 10.45054 | -61.43107 | 9240 ft | 308 kts | 245° |
| 2026-05-04 18:16 | 10.44229 | -61.45134 | 9910 ft | 313 kts | 245° |
| 2026-05-04 18:16 | 10.43384 | -61.47211 | 10282 ft | 328 kts | 245° |
| 2026-05-04 18:17 | 10.41521 | -61.51770 | 10645 ft | 367 kts | 246° |
| 2026-05-04 18:17 | 10.40534 | -61.54190 | 11140 ft | 373 kts | 246° |
| 2026-05-04 18:17 | 10.38530 | -61.59117 | 12252 ft | 381 kts | 246° |
| 2026-05-04 18:18 | 10.37510 | -61.61619 | 12808 ft | 385 kts | 246° |
| 2026-05-04 18:18 | 10.36480 | -61.64144 | 13351 ft | 389 kts | 246° |
| 2026-05-04 18:18 | 10.35438 | -61.66695 | 13877 ft | 393 kts | 246° |
| 2026-05-04 18:18 | 10.34386 | -61.69266 | 14339 ft | 396 kts | 246° |
| 2026-05-04 18:19 | 10.32264 | -61.74463 | 15306 ft | 401 kts | 246° |
| 2026-05-04 18:19 | 10.31193 | -61.77085 | 15794 ft | 404 kts | 246° |
| 2026-05-04 18:19 | 10.30114 | -61.79729 | 16276 ft | 406 kts | 246° |
| 2026-05-04 18:20 | 10.29030 | -61.82386 | 16752 ft | 409 kts | 246° |
| 2026-05-04 18:20 | 10.27934 | -61.85065 | 17220 ft | 412 kts | 246° |
| 2026-05-04 18:20 | 10.26834 | -61.87756 | 17689 ft | 414 kts | 246° |
| 2026-05-04 18:20 | 10.25725 | -61.90467 | 18159 ft | 417 kts | 246° |
| 2026-05-04 18:21 | 10.24609 | -61.93198 | 18570 ft | 420 kts | 247° |
| 2026-05-04 18:21 | 10.23485 | -61.95944 | 19019 ft | 421 kts | 247° |
| 2026-05-04 18:21 | 10.22360 | -61.98693 | 19495 ft | 422 kts | 247° |
| 2026-05-04 18:21 | 10.21233 | -62.01442 | 19970 ft | 423 kts | 247° |
| 2026-05-04 18:22 | 10.20102 | -62.04195 | 20448 ft | 423 kts | 247° |
| 2026-05-04 18:22 | 10.18969 | -62.06955 | 20912 ft | 424 kts | 247° |
| 2026-05-04 18:22 | 10.17833 | -62.09725 | 21356 ft | 426 kts | 247° |
| 2026-05-04 18:22 | 10.16696 | -62.12505 | 21781 ft | 427 kts | 248° |
| 2026-05-04 18:23 | 10.15556 | -62.15291 | 22222 ft | 428 kts | 248° |
| 2026-05-04 18:23 | 10.14412 | -62.18085 | 22678 ft | 428 kts | 248° |
| 2026-05-04 18:23 | 10.13268 | -62.20874 | 23141 ft | 428 kts | 248° |
| 2026-05-04 18:23 | 10.12122 | -62.23665 | 23584 ft | 428 kts | 248° |
| 2026-05-04 18:24 | 10.10978 | -62.26452 | 23933 ft | 428 kts | 249° |
| 2026-05-04 18:24 | 10.09831 | -62.29245 | 24262 ft | 429 kts | 249° |
| 2026-05-04 18:24 | 10.08680 | -62.32047 | 24567 ft | 431 kts | 248° |
| 2026-05-04 18:24 | 10.07524 | -62.34853 | 24867 ft | 432 kts | 249° |
| 2026-05-04 18:25 | 10.06363 | -62.37670 | 25162 ft | 433 kts | 249° |
| 2026-05-04 18:25 | 10.05201 | -62.40496 | 25437 ft | 435 kts | 249° |
| 2026-05-04 18:25 | 10.04036 | -62.43338 | 25715 ft | 436 kts | 249° |
| 2026-05-04 18:25 | 10.02871 | -62.46178 | 25987 ft | 438 kts | 249° |
| 2026-05-04 18:26 | 10.01698 | -62.49037 | 26252 ft | 439 kts | 249° |
| 2026-05-04 18:26 | 10.00521 | -62.51905 | 26519 ft | 441 kts | 249° |
| 2026-05-04 18:26 | 9.99339 | -62.54782 | 26779 ft | 442 kts | 249° |
| 2026-05-04 18:26 | 9.98151 | -62.57664 | 27044 ft | 444 kts | 249° |
| 2026-05-04 18:27 | 9.96958 | -62.60558 | 27287 ft | 445 kts | 249° |
| 2026-05-04 18:27 | 9.95761 | -62.63460 | 27529 ft | 447 kts | 249° |
| 2026-05-04 18:27 | 9.94557 | -62.66372 | 27770 ft | 449 kts | 249° |
| 2026-05-04 18:27 | 9.93350 | -62.69295 | 28019 ft | 450 kts | 249° |
| 2026-05-04 18:28 | 9.92142 | -62.72228 | 28250 ft | 451 kts | 249° |
| 2026-05-04 18:28 | 9.90933 | -62.75172 | 28472 ft | 453 kts | 249° |
| 2026-05-04 18:28 | 9.89719 | -62.78126 | 28697 ft | 454 kts | 249° |
| 2026-05-04 18:28 | 9.88503 | -62.81083 | 28905 ft | 455 kts | 249° |
| 2026-05-04 18:29 | 9.87278 | -62.84051 | 29133 ft | 457 kts | 249° |
| 2026-05-04 18:29 | 9.86049 | -62.87025 | 29337 ft | 458 kts | 249° |
| 2026-05-04 18:29 | 9.84817 | -62.90005 | 29530 ft | 459 kts | 250° |
| 2026-05-04 18:29 | 9.83581 | -62.92991 | 29720 ft | 460 kts | 250° |
| 2026-05-04 18:30 | 9.81119 | -62.98948 | 30092 ft | 462 kts | 250° |
| 2026-05-04 18:30 | 9.79874 | -63.01958 | 30245 ft | 463 kts | 249° |
| 2026-05-04 18:30 | 9.78628 | -63.04967 | 30455 ft | 462 kts | 249° |
| 2026-05-04 18:31 | 9.77387 | -63.07965 | 30679 ft | 461 kts | 249° |
| 2026-05-04 18:31 | 9.76148 | -63.10960 | 30903 ft | 460 kts | 249° |
| 2026-05-04 18:31 | 9.74911 | -63.13951 | 31124 ft | 459 kts | 249° |
| 2026-05-04 18:31 | 9.73672 | -63.16929 | 31351 ft | 458 kts | 249° |
| 2026-05-04 18:32 | 9.72417 | -63.19896 | 31575 ft | 458 kts | 249° |
| 2026-05-04 18:32 | 9.71154 | -63.22852 | 31795 ft | 457 kts | 249° |
| 2026-05-04 18:32 | 9.69887 | -63.25803 | 32025 ft | 456 kts | 249° |
| 2026-05-04 18:32 | 9.68623 | -63.28749 | 32246 ft | 455 kts | 249° |
| 2026-05-04 18:33 | 9.67365 | -63.31688 | 32478 ft | 454 kts | 249° |
| 2026-05-04 18:33 | 9.66112 | -63.34623 | 32692 ft | 454 kts | 249° |
| 2026-05-04 18:33 | 9.64861 | -63.37558 | 32924 ft | 453 kts | 249° |
| 2026-05-04 18:33 | 9.63614 | -63.40483 | 33156 ft | 452 kts | 249° |
| 2026-05-04 18:34 | 9.62366 | -63.43404 | 33387 ft | 451 kts | 248° |
| 2026-05-04 18:34 | 9.61117 | -63.46318 | 33619 ft | 451 kts | 248° |
| 2026-05-04 18:34 | 9.59868 | -63.49228 | 33848 ft | 450 kts | 248° |
| 2026-05-04 18:35 | 9.57383 | -63.55022 | 33942 ft | 446 kts | 248° |
| 2026-05-04 18:35 | 9.54925 | -63.60785 | 33943 ft | 445 kts | 248° |
| 2026-05-04 18:36 | 9.52465 | -63.66542 | 33942 ft | 445 kts | 248° |
| 2026-05-04 18:36 | 9.50421 | -63.71320 | 33938 ft | 445 kts | 248° |
| 2026-05-04 18:37 | 9.47956 | -63.77069 | 33942 ft | 445 kts | 248° |
| 2026-05-04 18:37 | 9.45495 | -63.82813 | 33938 ft | 445 kts | 248° |
| 2026-05-04 18:38 | 9.43032 | -63.88555 | 33931 ft | 445 kts | 248° |
| 2026-05-04 18:38 | 9.40563 | -63.94299 | 33933 ft | 445 kts | 248° |
| 2026-05-04 18:39 | 9.38100 | -64.00040 | 33927 ft | 444 kts | 248° |
| 2026-05-04 18:39 | 9.35641 | -64.05781 | 33923 ft | 444 kts | 248° |
| 2026-05-04 18:40 | 9.33178 | -64.11522 | 33926 ft | 444 kts | 248° |
| 2026-05-04 18:40 | 9.30712 | -64.17257 | 33923 ft | 444 kts | 248° |
| 2026-05-04 18:41 | 9.28239 | -64.22988 | 33919 ft | 444 kts | 248° |
| 2026-05-04 18:41 | 9.25765 | -64.28729 | 33919 ft | 445 kts | 248° |
| 2026-05-04 18:42 | 9.23295 | -64.34467 | 33924 ft | 445 kts | 248° |
| 2026-05-04 18:42 | 9.20842 | -64.40174 | 33928 ft | 445 kts | 248° |
| 2026-05-04 18:43 | 9.18367 | -64.45921 | 33930 ft | 445 kts | 248° |
| 2026-05-04 18:43 | 9.15889 | -64.51658 | 33928 ft | 445 kts | 248° |
| 2026-05-04 18:44 | 9.13414 | -64.57397 | 33932 ft | 445 kts | 248° |
| 2026-05-04 18:44 | 9.10939 | -64.63130 | 33932 ft | 444 kts | 248° |
| 2026-05-04 18:45 | 9.08467 | -64.68856 | 33930 ft | 444 kts | 248° |
| 2026-05-04 18:45 | 9.05991 | -64.74584 | 33922 ft | 444 kts | 248° |
| 2026-05-04 18:46 | 9.03514 | -64.80304 | 33920 ft | 444 kts | 248° |
| 2026-05-04 18:46 | 9.01042 | -64.86017 | 33914 ft | 443 kts | 248° |
| 2026-05-04 18:47 | 8.98572 | -64.91721 | 33912 ft | 443 kts | 248° |
| 2026-05-04 18:47 | 8.96107 | -64.97425 | 33907 ft | 443 kts | 248° |
| 2026-05-04 18:48 | 8.93639 | -65.03130 | 33907 ft | 442 kts | 248° |
| 2026-05-04 18:48 | 8.91170 | -65.08833 | 33908 ft | 443 kts | 248° |
| 2026-05-04 18:49 | 8.88693 | -65.14532 | 33908 ft | 442 kts | 247° |
| 2026-05-04 18:49 | 8.86212 | -65.20223 | 33912 ft | 442 kts | 247° |
| 2026-05-04 18:50 | 8.83737 | -65.25910 | 33910 ft | 442 kts | 247° |
| 2026-05-04 18:50 | 8.81286 | -65.31561 | 33912 ft | 442 kts | 247° |
| 2026-05-04 18:51 | 8.78823 | -65.37256 | 33910 ft | 442 kts | 247° |
| 2026-05-04 18:51 | 8.76356 | -65.42939 | 33910 ft | 441 kts | 247° |
| 2026-05-04 18:52 | 8.73886 | -65.48619 | 33905 ft | 441 kts | 247° |
| 2026-05-04 18:52 | 8.71413 | -65.54292 | 33904 ft | 441 kts | 247° |
| 2026-05-04 18:53 | 8.68939 | -65.59962 | 33898 ft | 441 kts | 247° |
| 2026-05-04 18:53 | 8.66464 | -65.65638 | 33896 ft | 441 kts | 247° |
| 2026-05-04 18:54 | 8.63994 | -65.71320 | 33903 ft | 442 kts | 247° |
| 2026-05-04 18:54 | 8.61522 | -65.76999 | 33900 ft | 442 kts | 247° |
| 2026-05-04 18:55 | 8.59041 | -65.82686 | 33897 ft | 442 kts | 247° |
| 2026-05-04 18:55 | 8.55326 | -65.91213 | 33896 ft | 442 kts | 247° |
| 2026-05-04 18:56 | 8.52848 | -65.96902 | 33897 ft | 442 kts | 247° |
| 2026-05-04 18:56 | 8.50359 | -66.02587 | 33899 ft | 442 kts | 247° |
| 2026-05-04 18:57 | 8.47874 | -66.08271 | 33895 ft | 442 kts | 247° |
| 2026-05-04 18:57 | 8.45386 | -66.13950 | 33895 ft | 442 kts | 246° |
| 2026-05-04 18:58 | 8.42898 | -66.19631 | 33894 ft | 442 kts | 246° |
| 2026-05-04 18:58 | 8.40414 | -66.25311 | 33890 ft | 442 kts | 246° |
| 2026-05-04 18:59 | 8.37930 | -66.30994 | 33892 ft | 442 kts | 246° |
| 2026-05-04 18:59 | 8.35448 | -66.36674 | 33888 ft | 442 kts | 246° |
| 2026-05-04 19:00 | 8.32960 | -66.42356 | 33886 ft | 442 kts | 246° |
| 2026-05-04 19:00 | 8.30464 | -66.48032 | 33888 ft | 442 kts | 246° |
| 2026-05-04 19:01 | 8.27974 | -66.53713 | 33889 ft | 443 kts | 246° |
| 2026-05-04 19:01 | 8.25478 | -66.59396 | 33885 ft | 443 kts | 246° |
| 2026-05-04 19:02 | 8.22988 | -66.65079 | 33889 ft | 442 kts | 246° |
| 2026-05-04 19:02 | 8.20492 | -66.70753 | 33893 ft | 442 kts | 246° |
| 2026-05-04 19:03 | 8.17996 | -66.76429 | 33894 ft | 442 kts | 246° |
| 2026-05-04 19:03 | 8.15504 | -66.82105 | 33889 ft | 442 kts | 246° |
| 2026-05-04 19:04 | 8.13022 | -66.87748 | 33891 ft | 443 kts | 246° |
| 2026-05-04 19:04 | 8.10526 | -66.93426 | 33887 ft | 443 kts | 246° |
| 2026-05-04 19:05 | 8.08024 | -66.99109 | 33883 ft | 443 kts | 246° |
| 2026-05-04 19:05 | 8.05525 | -67.04794 | 33885 ft | 443 kts | 246° |
| 2026-05-04 19:06 | 8.03020 | -67.10482 | 33882 ft | 444 kts | 246° |
| 2026-05-04 19:06 | 8.00508 | -67.16167 | 33883 ft | 444 kts | 246° |
| 2026-05-04 19:07 | 7.97998 | -67.21860 | 33882 ft | 444 kts | 246° |
| 2026-05-04 19:07 | 7.95485 | -67.27554 | 33882 ft | 444 kts | 246° |
| 2026-05-04 19:08 | 7.92972 | -67.33248 | 33884 ft | 445 kts | 246° |
| 2026-05-04 19:08 | 7.90456 | -67.38946 | 33880 ft | 444 kts | 245° |
| 2026-05-04 19:09 | 7.88091 | -67.44702 | 33878 ft | 445 kts | 253° |
| 2026-05-04 19:09 | 7.86612 | -67.50768 | 33881 ft | 446 kts | 256° |
| 2026-05-04 19:10 | 7.85135 | -67.56838 | 33882 ft | 446 kts | 255° |
| 2026-05-04 19:10 | 7.83646 | -67.62908 | 33882 ft | 446 kts | 255° |
| 2026-05-04 19:11 | 7.82161 | -67.68982 | 33886 ft | 446 kts | 255° |
| 2026-05-04 19:11 | 7.80675 | -67.75060 | 33879 ft | 446 kts | 255° |
| 2026-05-04 19:12 | 7.78452 | -67.84183 | 33885 ft | 447 kts | 255° |
| 2026-05-04 19:13 | 7.76968 | -67.90267 | 33887 ft | 447 kts | 255° |
| 2026-05-04 19:13 | 7.75473 | -67.96357 | 33890 ft | 448 kts | 255° |
| 2026-05-04 19:14 | 7.73987 | -68.02412 | 33893 ft | 448 kts | 255° |
| 2026-05-04 19:14 | 7.72494 | -68.08514 | 33896 ft | 448 kts | 255° |
| 2026-05-04 19:15 | 7.70996 | -68.14615 | 33900 ft | 448 kts | 255° |
| 2026-05-04 19:15 | 7.69499 | -68.20715 | 33901 ft | 448 kts | 255° |
| 2026-05-04 19:16 | 7.68001 | -68.26811 | 33897 ft | 448 kts | 255° |
| 2026-05-04 19:16 | 7.66499 | -68.32907 | 33898 ft | 448 kts | 255° |
| 2026-05-04 19:17 | 7.64999 | -68.39004 | 33898 ft | 448 kts | 255° |
| 2026-05-04 19:17 | 7.63502 | -68.45099 | 33903 ft | 448 kts | 255° |
| 2026-05-04 19:18 | 7.62009 | -68.51197 | 33897 ft | 448 kts | 255° |
| 2026-05-04 19:18 | 7.60513 | -68.57288 | 33899 ft | 448 kts | 255° |
| 2026-05-04 19:19 | 7.59010 | -68.63381 | 33902 ft | 448 kts | 255° |
| 2026-05-04 19:19 | 7.57499 | -68.69475 | 33900 ft | 448 kts | 255° |
| 2026-05-04 19:20 | 7.55999 | -68.75569 | 33900 ft | 448 kts | 255° |
| 2026-05-04 19:20 | 7.54503 | -68.81667 | 33900 ft | 448 kts | 255° |
| 2026-05-04 19:21 | 7.52996 | -68.87757 | 33898 ft | 448 kts | 255° |
| 2026-05-04 19:21 | 7.51479 | -68.93849 | 33899 ft | 448 kts | 255° |
| 2026-05-04 19:22 | 7.49969 | -68.99936 | 33897 ft | 448 kts | 255° |
| 2026-05-04 19:22 | 7.48471 | -69.06028 | 33896 ft | 448 kts | 255° |
| 2026-05-04 19:23 | 7.46961 | -69.12118 | 33897 ft | 448 kts | 255° |
| 2026-05-04 19:23 | 7.45452 | -69.18209 | 33895 ft | 448 kts | 255° |
| 2026-05-04 19:24 | 7.43940 | -69.24305 | 33896 ft | 449 kts | 255° |
| 2026-05-04 19:24 | 7.42685 | -69.29380 | 33899 ft | 449 kts | 255° |
| 2026-05-04 19:25 | 7.41168 | -69.35485 | 33901 ft | 449 kts | 255° |
| 2026-05-04 19:25 | 7.39644 | -69.41591 | 33902 ft | 450 kts | 255° |
| 2026-05-04 19:26 | 7.38127 | -69.47710 | 33902 ft | 450 kts | 255° |
| 2026-05-04 19:26 | 7.36608 | -69.53823 | 33906 ft | 450 kts | 255° |
| 2026-05-04 19:27 | 7.35090 | -69.59946 | 33906 ft | 450 kts | 255° |
| 2026-05-04 19:27 | 7.33570 | -69.66065 | 33906 ft | 450 kts | 255° |
| 2026-05-04 19:28 | 7.32043 | -69.72186 | 33912 ft | 451 kts | 255° |
| 2026-05-04 19:28 | 7.30510 | -69.78310 | 33913 ft | 451 kts | 255° |
| 2026-05-04 19:29 | 7.28982 | -69.84438 | 33917 ft | 451 kts | 255° |
| 2026-05-04 19:29 | 7.27455 | -69.90571 | 33919 ft | 451 kts | 255° |
| 2026-05-04 19:30 | 7.25923 | -69.96698 | 33926 ft | 451 kts | 255° |
| 2026-05-04 19:30 | 7.24386 | -70.02827 | 33923 ft | 451 kts | 255° |
| 2026-05-04 19:31 | 7.22848 | -70.08951 | 33922 ft | 451 kts | 255° |
| 2026-05-04 19:31 | 7.21316 | -70.15081 | 33920 ft | 452 kts | 255° |
| 2026-05-04 19:32 | 7.19785 | -70.21220 | 33921 ft | 452 kts | 255° |
| 2026-05-04 19:32 | 7.18263 | -70.27315 | 33921 ft | 452 kts | 255° |
| 2026-05-04 19:33 | 7.16725 | -70.33453 | 33914 ft | 452 kts | 255° |
| 2026-05-04 19:33 | 7.15186 | -70.39591 | 33913 ft | 452 kts | 255° |
| 2026-05-04 19:34 | 7.13640 | -70.45725 | 33911 ft | 452 kts | 255° |
| 2026-05-04 19:34 | 7.12102 | -70.51855 | 33907 ft | 452 kts | 255° |
| 2026-05-04 19:35 | 7.10563 | -70.57991 | 33908 ft | 452 kts | 256° |
| 2026-05-04 19:35 | 7.09023 | -70.64131 | 33909 ft | 452 kts | 255° |
| 2026-05-04 19:36 | 7.07475 | -70.70277 | 33910 ft | 453 kts | 255° |
| 2026-05-04 19:36 | 7.05045 | -70.76091 | 33908 ft | 452 kts | 238° |
| 2026-05-04 19:37 | 7.01780 | -70.81511 | 33903 ft | 453 kts | 238° |
| 2026-05-04 19:37 | 6.98521 | -70.86937 | 33902 ft | 453 kts | 238° |
| 2026-05-04 19:38 | 6.95258 | -70.92376 | 33899 ft | 454 kts | 238° |
| 2026-05-04 19:38 | 6.91994 | -70.97823 | 33894 ft | 455 kts | 238° |
| 2026-05-04 19:39 | 6.88716 | -71.03277 | 33894 ft | 455 kts | 238° |
| 2026-05-04 19:39 | 6.85435 | -71.08734 | 33893 ft | 456 kts | 238° |
| 2026-05-04 19:40 | 6.82149 | -71.14199 | 33893 ft | 457 kts | 238° |
| 2026-05-04 19:40 | 6.78856 | -71.19673 | 33895 ft | 458 kts | 238° |
| 2026-05-04 19:41 | 6.75558 | -71.25154 | 33899 ft | 458 kts | 238° |
| 2026-05-04 19:41 | 6.72259 | -71.30637 | 33903 ft | 458 kts | 238° |
| 2026-05-04 19:42 | 6.68964 | -71.36116 | 33913 ft | 458 kts | 238° |
| 2026-05-04 19:42 | 6.65692 | -71.41557 | 33918 ft | 457 kts | 238° |
| 2026-05-04 19:43 | 6.62400 | -71.47024 | 33930 ft | 457 kts | 238° |
| 2026-05-04 19:43 | 6.59111 | -71.52488 | 33946 ft | 456 kts | 238° |
| 2026-05-04 19:44 | 6.55817 | -71.57949 | 33957 ft | 457 kts | 238° |
| 2026-05-04 19:44 | 6.52525 | -71.63410 | 33972 ft | 457 kts | 238° |
| 2026-05-04 19:45 | 6.49228 | -71.68876 | 33978 ft | 457 kts | 238° |
| 2026-05-04 19:45 | 6.45925 | -71.74348 | 33973 ft | 458 kts | 238° |
| 2026-05-04 19:46 | 6.42565 | -71.79785 | 33976 ft | 458 kts | 237° |
| 2026-05-04 19:46 | 6.39090 | -71.85142 | 33977 ft | 457 kts | 237° |
| 2026-05-04 19:47 | 6.35597 | -71.90486 | 33981 ft | 457 kts | 237° |
| 2026-05-04 19:47 | 6.32138 | -71.95843 | 33993 ft | 457 kts | 237° |
| 2026-05-04 19:48 | 6.28700 | -72.01208 | 34011 ft | 457 kts | 237° |
| 2026-05-04 19:48 | 6.25260 | -72.06576 | 34038 ft | 457 kts | 237° |
| 2026-05-04 19:49 | 6.21816 | -72.11939 | 34042 ft | 457 kts | 237° |
| 2026-05-04 19:49 | 6.18378 | -72.17313 | 34044 ft | 457 kts | 237° |
| 2026-05-04 19:50 | 6.14951 | -72.22698 | 34049 ft | 457 kts | 237° |
| 2026-05-04 19:50 | 6.11525 | -72.28087 | 34055 ft | 457 kts | 237° |
| 2026-05-04 19:51 | 6.08096 | -72.33475 | 34058 ft | 458 kts | 237° |
| 2026-05-04 19:51 | 6.04661 | -72.38861 | 34062 ft | 458 kts | 237° |
| 2026-05-04 19:52 | 6.01243 | -72.44213 | 34069 ft | 458 kts | 237° |
| 2026-05-04 19:52 | 5.97804 | -72.49609 | 34069 ft | 459 kts | 237° |
| 2026-05-04 19:53 | 5.94332 | -72.55046 | 34072 ft | 459 kts | 237° |
| 2026-05-04 19:53 | 5.90908 | -72.60419 | 34075 ft | 460 kts | 237° |
| 2026-05-04 19:54 | 5.87460 | -72.65826 | 34077 ft | 460 kts | 237° |
| 2026-05-04 19:54 | 5.84003 | -72.71235 | 34076 ft | 460 kts | 237° |
| 2026-05-04 19:55 | 5.80551 | -72.76644 | 34069 ft | 460 kts | 237° |
| 2026-05-04 19:55 | 5.77101 | -72.82055 | 34065 ft | 460 kts | 237° |
| 2026-05-04 19:56 | 5.73649 | -72.87460 | 34062 ft | 460 kts | 237° |
| 2026-05-04 19:56 | 5.70189 | -72.92869 | 34051 ft | 460 kts | 237° |
| 2026-05-04 19:57 | 5.66037 | -72.97717 | 34045 ft | 459 kts | 219° |
| 2026-05-04 19:57 | 5.60777 | -73.01333 | 34041 ft | 459 kts | 212° |
| 2026-05-04 19:58 | 5.55428 | -73.04837 | 34038 ft | 459 kts | 213° |
| 2026-05-04 19:58 | 5.50078 | -73.08360 | 34036 ft | 460 kts | 213° |
| 2026-05-04 19:59 | 5.44725 | -73.11884 | 34037 ft | 461 kts | 212° |
| 2026-05-04 19:59 | 5.39359 | -73.15410 | 34034 ft | 461 kts | 212° |
| 2026-05-04 20:00 | 5.33993 | -73.18935 | 34038 ft | 461 kts | 213° |
| 2026-05-04 20:00 | 5.28618 | -73.22472 | 34040 ft | 462 kts | 212° |
| 2026-05-04 20:00 | 5.25927 | -73.24244 | 33808 ft | 463 kts | 212° |
| 2026-05-04 20:01 | 5.23233 | -73.26020 | 33566 ft | 463 kts | 212° |
| 2026-05-04 20:01 | 5.20538 | -73.27793 | 33310 ft | 464 kts | 212° |
| 2026-05-04 20:01 | 5.17942 | -73.29720 | 33053 ft | 466 kts | 221° |
| 2026-05-04 20:01 | 5.15762 | -73.32124 | 32805 ft | 467 kts | 233° |
| 2026-05-04 20:02 | 5.14109 | -73.34923 | 32558 ft | 468 kts | 245° |
| 2026-05-04 20:02 | 5.13053 | -73.38000 | 32321 ft | 468 kts | 257° |
| 2026-05-04 20:02 | 5.12627 | -73.41230 | 32081 ft | 468 kts | 268° |
| 2026-05-04 20:02 | 5.12572 | -73.44491 | 31858 ft | 467 kts | 269° |
| 2026-05-04 20:03 | 5.12523 | -73.47743 | 31625 ft | 466 kts | 269° |
| 2026-05-04 20:03 | 5.12472 | -73.50989 | 31393 ft | 465 kts | 269° |
| 2026-05-04 20:03 | 5.12422 | -73.54185 | 31165 ft | 464 kts | 269° |
| 2026-05-04 20:03 | 5.12368 | -73.57418 | 30941 ft | 463 kts | 269° |
| 2026-05-04 20:04 | 5.12312 | -73.60627 | 30490 ft | 459 kts | 269° |
| 2026-05-04 20:04 | 5.12256 | -73.63838 | 29841 ft | 459 kts | 269° |
| 2026-05-04 20:04 | 5.12204 | -73.67022 | 29248 ft | 456 kts | 269° |
| 2026-05-04 20:04 | 5.12153 | -73.70187 | 28668 ft | 453 kts | 269° |
| 2026-05-04 20:05 | 5.12101 | -73.73341 | 28090 ft | 450 kts | 269° |
| 2026-05-04 20:05 | 5.12050 | -73.76470 | 27527 ft | 448 kts | 269° |
| 2026-05-04 20:05 | 5.12001 | -73.79590 | 26962 ft | 445 kts | 269° |
| 2026-05-04 20:05 | 5.11951 | -73.82687 | 26418 ft | 443 kts | 269° |
| 2026-05-04 20:06 | 5.11902 | -73.85766 | 25876 ft | 441 kts | 269° |
| 2026-05-04 20:06 | 5.11851 | -73.88833 | 25360 ft | 438 kts | 269° |
| 2026-05-04 20:06 | 5.11800 | -73.91880 | 24862 ft | 436 kts | 269° |
| 2026-05-04 20:06 | 5.11808 | -73.94915 | 24366 ft | 434 kts | 275° |
| 2026-05-04 20:07 | 5.12309 | -73.97858 | 24128 ft | 424 kts | 286° |
| 2026-05-04 20:07 | 5.13185 | -74.00657 | 23759 ft | 419 kts | 289° |
| 2026-05-04 20:07 | 5.14081 | -74.03426 | 23267 ft | 415 kts | 289° |
| 2026-05-04 20:07 | 5.14972 | -74.06171 | 22776 ft | 412 kts | 289° |
| 2026-05-04 20:08 | 5.15857 | -74.08893 | 22309 ft | 409 kts | 289° |
| 2026-05-04 20:08 | 5.16732 | -74.11577 | 21521 ft | 403 kts | 289° |
| 2026-05-04 20:08 | 5.17600 | -74.14235 | 20710 ft | 399 kts | 289° |
| 2026-05-04 20:08 | 5.18454 | -74.16852 | 20173 ft | 392 kts | 289° |
| 2026-05-04 20:09 | 5.19298 | -74.19446 | 19686 ft | 389 kts | 289° |
| 2026-05-04 20:09 | 5.20146 | -74.22054 | 19203 ft | 386 kts | 289° |
| 2026-05-04 20:09 | 5.20965 | -74.24569 | 18720 ft | 383 kts | 289° |
| 2026-05-04 20:09 | 5.21788 | -74.27100 | 18239 ft | 378 kts | 289° |
| 2026-05-04 20:10 | 5.22501 | -74.29564 | 18025 ft | 357 kts | 279° |
| 2026-05-04 20:10 | 5.22596 | -74.32002 | 17824 ft | 348 kts | 262° |
| 2026-05-04 20:10 | 5.21983 | -74.34320 | 17598 ft | 342 kts | 244° |
| 2026-05-04 20:10 | 5.20730 | -74.36334 | 17472 ft | 339 kts | 227° |
| 2026-05-04 20:11 | 5.18979 | -74.37881 | 17275 ft | 336 kts | 210° |
| 2026-05-04 20:11 | 5.16883 | -74.38849 | 16841 ft | 331 kts | 192° |
| 2026-05-04 20:11 | 5.14627 | -74.39207 | 16386 ft | 328 kts | 182° |
| 2026-05-04 20:11 | 5.12373 | -74.39421 | 16117 ft | 323 kts | 182° |
| 2026-05-04 20:12 | 5.10126 | -74.39643 | 15616 ft | 324 kts | 183° |
| 2026-05-04 20:12 | 5.07911 | -74.39870 | 15288 ft | 316 kts | 183° |
| 2026-05-04 20:12 | 5.05744 | -74.40093 | 14847 ft | 311 kts | 183° |
| 2026-05-04 20:12 | 5.03613 | -74.40310 | 14567 ft | 301 kts | 183° |
| 2026-05-04 20:13 | 5.02255 | -74.40449 | 14348 ft | 294 kts | 183° |
| 2026-05-04 20:13 | 5.00233 | -74.40656 | 13936 ft | 290 kts | 183° |
| 2026-05-04 20:13 | 4.98243 | -74.40858 | 13437 ft | 286 kts | 183° |
| 2026-05-04 20:13 | 4.96269 | -74.41057 | 13016 ft | 282 kts | 182° |
| 2026-05-04 20:14 | 4.94324 | -74.41234 | 12904 ft | 284 kts | 178° |
| 2026-05-04 20:14 | 4.92399 | -74.40988 | 12794 ft | 274 kts | 160° |
| 2026-05-04 20:14 | 4.90724 | -74.40216 | 12753 ft | 256 kts | 143° |
| 2026-05-04 20:14 | 4.89429 | -74.39100 | 12793 ft | 237 kts | 129° |
| 2026-05-04 20:15 | 4.88445 | -74.37830 | 12811 ft | 227 kts | 126° |
| 2026-05-04 20:15 | 4.87493 | -74.36569 | 12845 ft | 227 kts | 125° |
| 2026-05-04 20:15 | 4.86541 | -74.35308 | 12849 ft | 227 kts | 126° |
| 2026-05-04 20:15 | 4.85589 | -74.34048 | 12705 ft | 225 kts | 126° |
| 2026-05-04 20:16 | 4.84660 | -74.32821 | 12442 ft | 217 kts | 126° |
| 2026-05-04 20:16 | 4.83760 | -74.31631 | 12173 ft | 212 kts | 126° |
| 2026-05-04 20:16 | 4.82877 | -74.30462 | 11921 ft | 208 kts | 126° |
| 2026-05-04 20:16 | 4.82017 | -74.29326 | 11680 ft | 200 kts | 126° |
| 2026-05-04 20:17 | 4.81202 | -74.28248 | 11443 ft | 189 kts | 125° |
| 2026-05-04 20:17 | 4.80420 | -74.27214 | 11229 ft | 184 kts | 125° |
| 2026-05-04 20:17 | 4.79651 | -74.26197 | 11013 ft | 183 kts | 124° |
| 2026-05-04 20:17 | 4.78886 | -74.25185 | 10807 ft | 182 kts | 124° |
| 2026-05-04 20:18 | 4.78124 | -74.24177 | 10587 ft | 179 kts | 126° |
| 2026-05-04 20:18 | 4.77378 | -74.23191 | 10392 ft | 176 kts | 126° |
| 2026-05-04 20:18 | 4.76642 | -74.22218 | 10189 ft | 174 kts | 126° |
| 2026-05-04 20:18 | 4.75918 | -74.21260 | 9952 ft | 172 kts | 126° |
| 2026-05-04 20:19 | 4.75198 | -74.20309 | 9732 ft | 171 kts | 126° |
| 2026-05-04 20:19 | 4.74477 | -74.19356 | 9504 ft | 173 kts | 126° |
| 2026-05-04 20:19 | 4.73750 | -74.18395 | 9263 ft | 173 kts | 126° |
| 2026-05-04 20:19 | 4.73018 | -74.17440 | 8986 ft | 172 kts | 126° |
| 2026-05-04 20:20 | 4.72292 | -74.16479 | 8716 ft | 173 kts | 126° |
| 2026-05-04 20:20 | 4.71562 | -74.15514 | 8469 ft | 174 kts | 126° |
| 2026-05-04 20:20 | 4.70859 | -74.14565 | 8366 ft | 155 kts | 124° |
| 2026-05-04 20:20 | 4.70319 | -74.13851 | 8364 ft | 103 kts | 127° |
| 2026-05-04 20:21 | 4.69991 | -74.13420 | 8367 ft | 48 kts | 126° |
| 2026-05-04 20:21 | 4.69838 | -74.13313 | 8367 ft | 24 kts | 173° |
| 2026-05-04 20:21 | 4.69704 | -74.13297 | 8366 ft | 6 kts | 183° |
| 2026-05-04 20:22 | 4.69680 | -74.13344 | 8366 ft | 13 kts | 294° |
| 2026-05-04 20:22 | 4.69754 | -74.13435 | 8366 ft | 20 kts | 304° |
| 2026-05-04 20:22 | 4.69842 | -74.13554 | 8366 ft | 22 kts | 309° |
| 2026-05-04 20:22 | 4.69878 | -74.13670 | 8366 ft | 15 kts | 265° |
| 2026-05-04 20:23 | 4.69836 | -74.13768 | 8366 ft | 14 kts | 263° |
| 2026-05-04 20:23 | 4.69879 | -74.13840 | 8366 ft | 14 kts | 308° |
| 2026-05-04 20:23 | 4.69947 | -74.13929 | 8366 ft | 16 kts | 305° |
| 2026-05-04 20:23 | 4.69919 | -74.13994 | 8366 ft | 10 kts | 219° |
| 2026-05-04 20:24 | 4.69903 | -74.14007 | 8366 ft | 3 kts | 217° |
| 2026-05-04 20:24 | 4.69898 | -74.14011 | 8366 ft | 0 kts | 217° |